Time;durP1;ratioP1;P1;durP2;ratioP2;P2;SDS_P1;SDS_P2;PMS_P1;PMS_P2;Temp;Humidity;BMP_temperature;BMP_pressure;BME280_temperature;BME280_humidity;BME280_pressure;Samples;Min_cycle;Max_cycle;Signal;HPM_P1;HPM_P2
2023/02/27 00:00:15;;;;;;;;;;;;;;;-1.81;70.77;98724.34;7390849;19;20675;-73
2023/02/27 00:02:42;;;;;;;;;;;;;;;-1.75;71.26;98728.41;7390861;19;19923;-73
2023/02/27 00:05:09;;;;;;;;;;;;;;;-1.76;70.57;98732.75;7391699;19;19922;-73
2023/02/27 00:07:36;;;;;;;;;;;;;;;-1.84;70.95;98737.44;7394880;19;19931;-73
2023/02/27 00:10:03;;;;;;;;;;;;;;;-1.80;71.20;98733.78;7392554;19;19911;-73
2023/02/27 00:12:36;;;;;;;;;;;;;;;-1.77;71.00;98734.47;7394037;19;19946;-74
2023/02/27 00:15:07;;;;;;;;;;;;;;;-1.89;71.25;98731.63;7393508;19;19928;-73
2023/02/27 00:17:33;;;;;;;;;;;;;;;-2.01;72.24;98735.59;7394825;19;19937;-74
2023/02/27 00:20:00;;;;;;;;;;;;;;;-1.99;72.12;98726.00;7394929;19;19918;-73
2023/02/27 00:22:27;;;;;;;;;;;;;;;-2.13;72.22;98733.53;7389991;19;20518;-73
2023/02/27 00:24:53;;;;;;;;;;;;;;;-2.12;71.51;98723.13;7392210;19;19930;-73
2023/02/27 00:27:20;;;;;;;;;;;;;;;-2.04;71.45;98718.44;7388537;19;20010;-73
2023/02/27 00:29:47;;;;;;;;;;;;;;;-1.93;71.40;98730.06;7394904;19;19918;-73
2023/02/27 00:32:13;;;;;;;;;;;;;;;-1.84;72.03;98722.72;7389826;19;19922;-73
2023/02/27 00:34:40;;;;;;;;;;;;;;;-1.91;71.68;98723.91;7393861;19;19935;-73
2023/02/27 00:37:08;;;;;;;;;;;;;;;-1.92;71.66;98726.56;7387910;19;19918;-73
2023/02/27 00:39:35;;;;;;;;;;;;;;;-1.90;71.68;98732.53;7395422;19;19922;-73
2023/02/27 00:42:02;;;;;;;;;;;;;;;-1.88;71.92;98728.94;7389764;19;20283;-72
2023/02/27 00:44:28;;;;;;;;;;;;;;;-1.97;71.91;98726.78;7388029;19;19921;-73
2023/02/27 00:46:55;;;;;;;;;;;;;;;-1.96;71.74;98717.25;7394461;19;20231;-73
2023/02/27 00:49:21;;;;;;;;;;;;;;;-2.02;71.72;98718.38;7392733;19;19942;-72
2023/02/27 00:51:48;;;;;;;;;;;;;;;-1.91;72.20;98720.47;7389672;19;20379;-72
2023/02/27 00:54:15;;;;;;;;;;;;;;;-1.92;71.89;98727.41;7386787;19;19929;-73
2023/02/27 00:56:41;;;;;;;;;;;;;;;-1.91;72.19;98729.09;7393345;19;19915;-73
2023/02/27 00:59:08;;;;;;;;;;;;;;;-1.85;71.98;98735.75;7390451;19;20278;-72
2023/02/27 01:01:35;;;;;;;;;;;;;;;-1.79;71.79;98730.28;7391250;19;19922;-73
2023/02/27 01:04:01;;;;;;;;;;;;;;;-1.93;71.37;98728.31;7387290;19;20422;-73
2023/02/27 01:06:29;;;;;;;;;;;;;;;-1.85;71.39;98733.16;7388559;19;19929;-73
2023/02/27 01:08:55;;;;;;;;;;;;;;;-1.84;71.58;98734.84;7393334;19;19925;-73
2023/02/27 01:11:23;;;;;;;;;;;;;;;-1.99;71.58;98732.03;7388243;19;19942;-73
2023/02/27 01:13:50;;;;;;;;;;;;;;;-1.99;72.17;98736.38;7389796;19;19928;-73
2023/02/27 01:16:17;;;;;;;;;;;;;;;-1.89;71.84;98732.47;7387814;19;19918;-73
2023/02/27 01:18:44;;;;;;;;;;;;;;;-1.90;71.71;98732.53;7394540;19;19934;-73
2023/02/27 01:21:10;;;;;;;;;;;;;;;-1.92;71.64;98729.16;7387921;19;19915;-73
2023/02/27 01:23:37;;;;;;;;;;;;;;;-1.90;71.71;98725.56;7388827;19;20398;-73
2023/02/27 01:26:04;;;;;;;;;;;;;;;-1.95;71.94;98724.09;7386443;19;19924;-72
2023/02/27 01:28:32;;;;;;;;;;;;;;;-2.03;72.25;98720.13;7391574;19;19921;-72
2023/02/27 01:30:59;;;;;;;;;;;;;;;-1.91;71.89;98723.06;7390443;19;20328;-73
2023/02/27 01:33:25;;;;;;;;;;;;;;;-1.89;72.14;98722.09;7386925;19;19926;-72
2023/02/27 01:35:52;;;;;;;;;;;;;;;-1.93;71.72;98725.72;7393570;19;19947;-73
2023/02/27 01:38:18;;;;;;;;;;;;;;;-1.97;72.48;98724.19;7391387;19;19922;-73
2023/02/27 01:40:45;;;;;;;;;;;;;;;-1.95;72.04;98714.56;7399741;19;19930;-73
2023/02/27 01:43:17;;;;;;;;;;;;;;;-2.02;72.27;98715.78;7391929;19;19915;-72
2023/02/27 01:45:46;;;;;;;;;;;;;;;-1.98;72.46;98720.72;7397731;19;19949;-73
2023/02/27 01:48:15;;;;;;;;;;;;;;;-2.00;72.30;98712.22;7395710;19;19926;-73
2023/02/27 01:50:45;;;;;;;;;;;;;;;-2.04;72.24;98720.19;7396862;19;19915;-73
2023/02/27 01:53:12;;;;;;;;;;;;;;;-2.00;71.99;98717.41;7392873;19;20246;-73
2023/02/27 01:55:38;;;;;;;;;;;;;;;-1.90;72.33;98717.78;7398945;19;20240;-73
2023/02/27 01:58:05;;;;;;;;;;;;;;;-1.99;72.24;98715.63;7396550;19;19959;-73
2023/02/27 02:00:32;;;;;;;;;;;;;;;-1.93;72.21;98720.53;7392653;19;19919;-73
2023/02/27 02:03:11;;;;;;;;;;;;;;;-1.95;72.55;98714.56;7396594;19;19922;-73
2023/02/27 02:05:39;;;;;;;;;;;;;;;-1.93;72.57;98704.16;7395769;19;19947;-73
2023/02/27 02:08:06;;;;;;;;;;;;;;;-1.95;72.10;98703.38;7397472;19;19922;-73
2023/02/27 02:10:33;;;;;;;;;;;;;;;-2.04;72.75;98713.25;7396209;19;19930;-73
2023/02/27 02:13:02;;;;;;;;;;;;;;;-2.04;72.22;98708.06;7394923;19;19940;-73
2023/02/27 02:15:31;;;;;;;;;;;;;;;-2.04;72.73;98705.47;7391842;19;19921;-72
2023/02/27 02:18:12;;;;;;;;;;;;;;;-2.05;72.83;98708.97;7393382;19;21371;-72
2023/02/27 02:20:47;;;;;;;;;;;;;;;-2.04;72.64;98707.22;7393878;19;20347;-73
2023/02/27 02:23:21;;;;;;;;;;;;;;;-2.00;72.90;98704.44;7391518;19;19961;-73
2023/02/27 02:25:51;;;;;;;;;;;;;;;-2.11;72.65;98705.81;7395809;19;20338;-73
2023/02/27 02:28:37;;;;;;;;;;;;;;;-2.13;72.70;98715.38;7392700;19;19927;-73
2023/02/27 02:31:20;;;;;;;;;;;;;;;-2.15;73.06;98717.25;7393848;19;19927;-73
2023/02/27 02:34:05;;;;;;;;;;;;;;;-2.10;72.97;98707.50;7393418;19;22079;-73
2023/02/27 02:36:50;;;;;;;;;;;;;;;-2.09;72.82;98709.19;7391704;19;20207;-73
2023/02/27 02:39:33;;;;;;;;;;;;;;;-2.14;72.60;98706.78;7394123;19;19933;-73
2023/02/27 02:42:03;;;;;;;;;;;;;;;-2.15;72.95;98714.66;7394937;19;20648;-73
2023/02/27 02:44:38;;;;;;;;;;;;;;;-2.18;73.08;98713.03;7394727;19;19938;-73
2023/02/27 02:47:11;;;;;;;;;;;;;;;-2.21;73.04;98714.00;7396182;19;19994;-73
2023/02/27 02:49:42;;;;;;;;;;;;;;;-2.17;73.37;98713.88;7395843;19;19923;-73
2023/02/27 02:52:08;;;;;;;;;;;;;;;-2.11;73.33;98711.81;7389594;19;19921;-73
2023/02/27 02:54:35;;;;;;;;;;;;;;;-2.14;73.22;98721.50;7387373;19;20256;-73
2023/02/27 02:57:04;;;;;;;;;;;;;;;-2.22;73.41;98722.66;7392989;19;19922;-73
2023/02/27 02:59:37;;;;;;;;;;;;;;;-2.16;73.81;98718.13;7388462;19;19930;-73
2023/02/27 03:02:11;;;;;;;;;;;;;;;-2.27;73.42;98724.63;7394596;19;19914;-73
2023/02/27 03:04:42;;;;;;;;;;;;;;;-2.18;73.26;98725.16;7388899;19;19940;-73
2023/02/27 03:07:29;;;;;;;;;;;;;;;-2.17;73.40;98732.00;7386756;19;20355;-73
2023/02/27 03:10:08;;;;;;;;;;;;;;;-2.16;73.67;98723.31;7392358;19;19925;-73
2023/02/27 03:12:35;;;;;;;;;;;;;;;-2.30;73.39;98716.97;7388276;19;20672;-73
2023/02/27 03:15:25;;;;;;;;;;;;;;;-2.26;73.88;98722.91;7390842;19;19925;-73
2023/02/27 03:17:52;;;;;;;;;;;;;;;-2.33;73.73;98726.66;7393957;19;19918;-73
2023/02/27 03:20:33;;;;;;;;;;;;;;;-2.28;73.92;98720.34;7392069;19;20663;-73
2023/02/27 03:23:00;;;;;;;;;;;;;;;-2.36;74.03;98727.63;7392636;19;19932;-73
2023/02/27 03:25:27;;;;;;;;;;;;;;;-2.37;73.92;98736.31;7388912;19;19918;-73
2023/02/27 03:28:14;;;;;;;;;;;;;;;-2.36;74.24;98743.16;7387084;19;20312;-73
2023/02/27 03:30:45;;;;;;;;;;;;;;;-2.31;74.27;98738.63;7390544;19;20594;-73
2023/02/27 03:33:23;;;;;;;;;;;;;;;-2.30;73.98;98744.66;7391369;19;19918;-73
2023/02/27 03:35:50;;;;;;;;;;;;;;;-2.36;74.05;98738.00;7391236;19;19982;-73
2023/02/27 03:38:26;;;;;;;;;;;;;;;-2.36;73.99;98742.34;7392878;19;19919;-73
2023/02/27 03:41:08;;;;;;;;;;;;;;;-2.28;74.42;98746.28;7394888;19;19922;-74
2023/02/27 03:43:45;;;;;;;;;;;;;;;-2.25;74.06;98747.88;7394126;19;20010;-74
2023/02/27 03:46:20;;;;;;;;;;;;;;;-2.38;74.38;98746.75;7391974;19;19918;-74
2023/02/27 03:48:49;;;;;;;;;;;;;;;-2.24;74.38;98747.84;7391681;19;19927;-73
2023/02/27 03:51:19;;;;;;;;;;;;;;;-2.17;73.98;98755.34;7393062;19;19918;-74
2023/02/27 03:53:48;;;;;;;;;;;;;;;-2.15;74.32;98748.34;7390189;19;19930;-74
2023/02/27 03:56:15;;;;;;;;;;;;;;;-2.41;73.68;98746.88;7391854;19;19914;-73
2023/02/27 03:58:42;;;;;;;;;;;;;;;-2.19;74.25;98759.72;7395497;19;20308;-74
2023/02/27 04:01:09;;;;;;;;;;;;;;;-2.21;74.26;98758.06;7390933;19;19937;-74
2023/02/27 04:03:36;;;;;;;;;;;;;;;-2.18;74.38;98758.84;7389199;19;22266;-73
2023/02/27 04:07:21;;;;;;;;;;;;;;;-2.26;74.09;98754.81;7389836;19;19926;-73
2023/02/27 04:08:53;;;;;;;;;;;;;;;-2.21;74.08;98760.66;7392179;19;19915;-73
2023/02/27 04:11:19;;;;;;;;;;;;;;;-2.33;74.26;98765.53;7389511;19;20362;-73
2023/02/27 04:14:01;;;;;;;;;;;;;;;-2.41;74.19;98758.06;7392819;19;19929;-74
2023/02/27 04:16:54;;;;;;;;;;;;;;;-2.30;74.33;98766.22;7387613;19;20287;-72
2023/02/27 04:19:21;;;;;;;;;;;;;;;-2.23;74.90;98772.84;7390751;19;19915;-72
2023/02/27 04:21:55;;;;;;;;;;;;;;;-2.27;74.48;98773.03;7394735;19;20384;-73
2023/02/27 04:24:28;;;;;;;;;;;;;;;-2.22;74.57;98771.06;7388021;19;21016;-73
2023/02/27 04:26:58;;;;;;;;;;;;;;;-2.21;74.66;98765.00;7391984;19;20406;-73
2023/02/27 04:29:47;;;;;;;;;;;;;;;-2.25;73.96;98766.88;7388932;19;19926;-73
2023/02/27 04:32:15;;;;;;;;;;;;;;;-2.26;74.47;98772.13;7394209;19;19986;-73
2023/02/27 04:34:44;;;;;;;;;;;;;;;-2.23;74.65;98767.66;7394023;19;19940;-73
2023/02/27 04:37:12;;;;;;;;;;;;;;;-2.29;74.72;98762.75;7390987;19;20314;-73
2023/02/27 04:39:41;;;;;;;;;;;;;;;-2.27;74.12;98766.09;7388865;19;19929;-75
2023/02/27 04:42:12;;;;;;;;;;;;;;;-2.21;74.19;98768.44;7390515;19;20280;-75
2023/02/27 04:44:38;;;;;;;;;;;;;;;-2.36;74.28;98769.09;7383317;19;20593;-75
2023/02/27 04:47:05;;;;;;;;;;;;;;;-2.30;74.35;98763.63;7390444;19;20599;-75
2023/02/27 04:49:43;;;;;;;;;;;;;;;-2.35;74.14;98765.56;7390984;19;19918;-75
2023/02/27 04:52:39;;;;;;;;;;;;;;;-2.43;74.32;98768.50;7389752;19;20662;-75
2023/02/27 04:55:10;;;;;;;;;;;;;;;-2.44;74.36;98763.38;7392520;19;19932;-73
2023/02/27 04:57:40;;;;;;;;;;;;;;;-2.40;74.33;98764.09;7388043;19;19910;-74
2023/02/27 05:00:08;;;;;;;;;;;;;;;-2.46;74.33;98763.44;7390175;19;19914;-72
2023/02/27 05:02:35;;;;;;;;;;;;;;;-2.44;74.19;98760.81;7384817;19;20275;-72
2023/02/27 05:05:03;;;;;;;;;;;;;;;-2.48;74.58;98769.59;7391061;19;19914;-73
2023/02/27 05:07:31;;;;;;;;;;;;;;;-2.45;74.54;98770.31;7386797;19;20311;-74
2023/02/27 05:10:02;;;;;;;;;;;;;;;-2.52;74.61;98771.47;7392144;19;19911;-73
2023/02/27 05:12:32;;;;;;;;;;;;;;;-2.45;74.75;98779.81;7386181;19;19998;-73
2023/02/27 05:15:01;;;;;;;;;;;;;;;-2.44;75.01;98776.34;7397856;19;19922;-73
2023/02/27 05:17:32;;;;;;;;;;;;;;;-2.46;74.71;98778.16;7395376;19;19918;-73
2023/02/27 05:19:58;;;;;;;;;;;;;;;-2.46;74.45;98780.75;7399347;19;19982;-73
2023/02/27 05:22:32;;;;;;;;;;;;;;;-2.52;74.65;98783.59;7391549;19;20263;-73
2023/02/27 05:25:01;;;;;;;;;;;;;;;-2.53;74.51;98779.31;7399292;19;19918;-73
2023/02/27 05:27:37;;;;;;;;;;;;;;;-2.50;74.77;98790.41;7393507;19;19929;-73
2023/02/27 05:30:05;;;;;;;;;;;;;;;-2.43;75.05;98790.97;7393478;19;19949;-73
2023/02/27 05:32:46;;;;;;;;;;;;;;;-2.46;74.86;98799.72;7389279;19;20283;-73
2023/02/27 05:35:19;;;;;;;;;;;;;;;-2.39;74.56;98789.94;7397455;19;19914;-73
2023/02/27 05:37:51;;;;;;;;;;;;;;;-2.51;74.90;98796.47;7396134;19;20275;-72
2023/02/27 05:40:19;;;;;;;;;;;;;;;-2.49;74.90;98799.84;7392675;19;19918;-73
2023/02/27 05:42:48;;;;;;;;;;;;;;;-2.45;74.58;98795.38;7393026;19;20343;-73
2023/02/27 05:45:19;;;;;;;;;;;;;;;-2.50;74.78;98805.06;7395643;19;19924;-73
2023/02/27 05:47:48;;;;;;;;;;;;;;;-2.59;74.65;98806.31;7392277;19;19918;-75
2023/02/27 05:50:16;;;;;;;;;;;;;;;-2.53;75.19;98807.81;7397693;19;19941;-74
2023/02/27 05:52:43;;;;;;;;;;;;;;;-2.49;75.02;98806.78;7390130;19;19919;-74
2023/02/27 05:55:15;;;;;;;;;;;;;;;-2.56;74.86;98807.94;7396243;19;20290;-74
2023/02/27 05:57:51;;;;;;;;;;;;;;;-2.54;75.14;98812.16;7389385;19;19989;-74
2023/02/27 06:00:32;;;;;;;;;;;;;;;-2.46;75.23;98810.06;7394204;19;19923;-74
2023/02/27 06:02:59;;;;;;;;;;;;;;;-2.47;74.77;98811.00;7391814;19;19925;-75
2023/02/27 06:05:26;;;;;;;;;;;;;;;-2.56;74.57;98802.75;7392349;19;19914;-74
2023/02/27 06:07:52;;;;;;;;;;;;;;;-2.51;74.66;98817.19;7395840;19;19922;-74
2023/02/27 06:10:19;;;;;;;;;;;;;;;-2.50;75.13;98816.31;7396403;19;19922;-74
2023/02/27 06:12:46;;;;;;;;;;;;;;;-2.57;75.19;98812.28;7392605;19;20601;-74
2023/02/27 06:15:13;;;;;;;;;;;;;;;-2.53;75.23;98808.63;7395558;19;19990;-74
2023/02/27 06:17:39;;;;;;;;;;;;;;;-2.52;75.26;98817.28;7390724;19;19941;-74
2023/02/27 06:20:06;;;;;;;;;;;;;;;-2.53;75.21;98818.16;7393706;19;19933;-74
2023/02/27 06:22:33;;;;;;;;;;;;;;;-2.47;75.39;98817.94;7390679;19;19914;-74
2023/02/27 06:25:00;;;;;;;;;;;;;;;-2.47;75.28;98815.34;7396465;19;20357;-74
2023/02/27 06:27:26;;;;;;;;;;;;;;;-2.51;75.33;98821.53;7390323;19;20452;-74
2023/02/27 06:29:53;;;;;;;;;;;;;;;-2.49;75.66;98827.50;7394533;19;19922;-74
2023/02/27 06:32:20;;;;;;;;;;;;;;;-2.36;74.88;98820.91;7395498;19;19942;-74
2023/02/27 06:34:46;;;;;;;;;;;;;;;-2.38;74.89;98833.09;7390282;19;19918;-74
2023/02/27 06:37:13;;;;;;;;;;;;;;;-2.41;74.67;98833.22;7388834;19;19926;-74
2023/02/27 06:39:39;;;;;;;;;;;;;;;-2.37;74.85;98834.78;7390756;19;20251;-74
2023/02/27 06:42:06;;;;;;;;;;;;;;;-2.32;75.16;98826.78;7393798;19;20259;-74
2023/02/27 06:44:33;;;;;;;;;;;;;;;-2.23;75.03;98835.03;7390124;19;20349;-74
2023/02/27 06:46:59;;;;;;;;;;;;;;;-2.28;74.89;98831.78;7395809;19;19946;-74
2023/02/27 06:49:26;;;;;;;;;;;;;;;-2.27;75.02;98837.81;7394067;19;20018;-74
2023/02/27 06:51:52;;;;;;;;;;;;;;;-2.09;75.38;98834.44;7392160;19;19937;-74
2023/02/27 06:57:16;;;;;;;;;;;;;;;-1.91;75.05;98843.19;7392483;19;19986;-73
2023/02/27 06:59:44;;;;;;;;;;;;;;;-1.84;74.63;98834.25;7389976;19;21257;-74
2023/02/27 07:02:14;;;;;;;;;;;;;;;-1.92;74.06;98846.69;7393145;19;19929;-74
2023/02/27 07:04:40;;;;;;;;;;;;;;;-1.80;74.25;98842.72;7386987;19;19918;-74
2023/02/27 07:07:07;;;;;;;;;;;;;;;-1.83;74.10;98845.44;7393173;19;19923;-74
2023/02/27 07:09:54;;;;;;;;;;;;;;;-1.68;74.04;98854.31;7391014;19;19914;-74
2023/02/27 07:12:20;;;;;;;;;;;;;;;-1.70;73.06;98856.97;7393107;19;19923;-73
2023/02/27 07:14:47;;;;;;;;;;;;;;;-1.52;73.74;98859.69;7389363;19;20750;-74
2023/02/27 07:17:13;;;;;;;;;;;;;;;-1.43;73.38;98859.25;7393230;19;20433;-74
2023/02/27 07:19:40;;;;;;;;;;;;;;;-1.59;72.72;98862.53;7392915;19;19914;-74
2023/02/27 07:22:08;;;;;;;;;;;;;;;-1.42;73.22;98864.38;7393833;19;19922;-74
2023/02/27 07:24:35;;;;;;;;;;;;;;;-1.42;72.79;98871.31;7386471;19;19974;-74
2023/02/27 07:27:02;;;;;;;;;;;;;;;-1.35;73.36;98876.16;7388433;19;19931;-74
2023/02/27 07:29:28;;;;;;;;;;;;;;;-1.27;72.87;98874.97;7387902;19;20348;-75
2023/02/27 07:31:55;;;;;;;;;;;;;;;-1.13;73.10;98868.25;7392737;19;20651;-74
2023/02/27 07:34:22;;;;;;;;;;;;;;;-1.03;72.14;98868.66;7391850;19;20436;-73
2023/02/27 07:36:48;;;;;;;;;;;;;;;-0.92;72.62;98866.41;7382955;19;20339;-73
2023/02/27 07:39:15;;;;;;;;;;;;;;;-0.91;71.80;98870.69;7392348;19;19915;-73
2023/02/27 07:41:42;;;;;;;;;;;;;;;-0.83;71.59;98866.91;7387433;19;20313;-73
2023/02/27 07:44:15;;;;;;;;;;;;;;;-0.77;71.69;98864.84;7383202;19;19956;-73
2023/02/27 07:46:43;;;;;;;;;;;;;;;-0.78;71.06;98873.56;7383379;19;20327;-73
2023/02/27 07:49:10;;;;;;;;;;;;;;;-0.61;71.12;98871.91;7393339;19;19918;-73
2023/02/27 07:51:36;;;;;;;;;;;;;;;-0.60;70.69;98866.66;7388219;19;19929;-73
2023/02/27 07:54:03;;;;;;;;;;;;;;;-0.49;70.53;98864.38;7389638;19;19925;-73
2023/02/27 07:56:29;;;;;;;;;;;;;;;-0.48;69.68;98871.22;7386969;19;19918;-72
2023/02/27 07:58:56;;;;;;;;;;;;;;;-0.47;69.81;98865.13;7387245;19;19942;-73
2023/02/27 08:01:23;;;;;;;;;;;;;;;-0.39;68.42;98869.13;7386171;19;19915;-74
2023/02/27 08:03:49;;;;;;;;;;;;;;;-0.27;68.83;98871.09;7385015;19;20406;-74
2023/02/27 08:06:16;;;;;;;;;;;;;;;-0.36;68.90;98872.41;7388752;19;19937;-71
2023/02/27 08:08:42;;;;;;;;;;;;;;;-0.24;68.46;98868.34;7387135;19;19921;-71
2023/02/27 08:11:09;;;;;;;;;;;;;;;-0.19;68.43;98863.78;7390550;19;19918;-71
2023/02/27 08:13:36;;;;;;;;;;;;;;;-0.04;68.69;98862.16;7386715;19;19923;-73
2023/02/27 08:16:22;;;;;;;;;;;;;;;0.07;67.59;98861.63;7385037;19;19914;-73
2023/02/27 08:18:49;;;;;;;;;;;;;;;0.18;67.28;98857.53;7386250;19;19922;-74
2023/02/27 08:21:16;;;;;;;;;;;;;;;0.30;67.23;98861.28;7392907;19;19919;-73
2023/02/27 08:23:42;;;;;;;;;;;;;;;0.48;66.47;98867.31;7386612;19;19941;-74
2023/02/27 08:26:09;;;;;;;;;;;;;;;0.57;66.05;98876.38;7390530;19;19922;-73
2023/02/27 08:28:36;;;;;;;;;;;;;;;0.52;64.84;98863.59;7388841;19;19918;-74
2023/02/27 08:31:03;;;;;;;;;;;;;;;0.64;65.22;98868.16;7385936;19;19915;-73
2023/02/27 08:33:29;;;;;;;;;;;;;;;0.72;64.83;98872.97;7383406;19;20405;-72
2023/02/27 08:35:56;;;;;;;;;;;;;;;0.82;63.32;98860.31;7388856;19;19923;-73
2023/02/27 08:38:22;;;;;;;;;;;;;;;1.05;62.63;98864.25;7391034;19;19942;-73
2023/02/27 08:40:54;;;;;;;;;;;;;;;1.35;62.31;98872.16;7387058;19;19918;-73
2023/02/27 08:43:21;;;;;;;;;;;;;;;1.53;60.44;98870.28;7390525;19;19918;-73
2023/02/27 08:45:48;;;;;;;;;;;;;;;1.85;61.50;98876.28;7385485;19;20260;-73
2023/02/27 08:48:15;;;;;;;;;;;;;;;2.16;59.17;98871.88;7388193;19;20277;-73
2023/02/27 08:50:41;;;;;;;;;;;;;;;2.31;59.27;98876.16;7383102;19;19922;-73
2023/02/27 08:53:08;;;;;;;;;;;;;;;2.11;57.68;98876.53;7386959;19;19918;-74
2023/02/27 08:55:35;;;;;;;;;;;;;;;2.29;58.03;98890.25;7388103;19;19918;-74
2023/02/27 08:58:01;;;;;;;;;;;;;;;2.60;57.90;98887.47;7389031;19;20250;-73
2023/02/27 09:00:28;;;;;;;;;;;;;;;2.88;56.98;98869.28;7385193;19;19919;-73
2023/02/27 09:02:55;;;;;;;;;;;;;;;2.93;54.27;98872.44;7386440;19;20298;-73
2023/02/27 09:05:22;;;;;;;;;;;;;;;3.59;55.09;98876.94;7381658;19;19915;-74
2023/02/27 09:07:49;;;;;;;;;;;;;;;4.33;53.29;98882.53;7383320;19;20156;-74
2023/02/27 09:10:16;;;;;;;;;;;;;;;4.49;51.04;98884.97;7385341;19;19923;-73
2023/02/27 09:12:43;;;;;;;;;;;;;;;4.43;51.51;98888.00;7383081;19;19943;-73
2023/02/27 09:15:10;;;;;;;;;;;;;;;4.03;52.75;98886.28;7386556;19;19918;-73
2023/02/27 09:17:36;;;;;;;;;;;;;;;3.66;53.98;98888.69;7387063;19;19929;-73
2023/02/27 09:20:03;;;;;;;;;;;;;;;3.60;53.94;98885.63;7388777;19;19921;-73
2023/02/27 09:22:30;;;;;;;;;;;;;;;3.47;54.36;98885.56;7380863;19;19918;-74
2023/02/27 09:24:57;;;;;;;;;;;;;;;3.12;53.29;98882.59;7386760;19;19934;-73
2023/02/27 09:27:24;;;;;;;;;;;;;;;3.28;54.02;98888.53;7387535;19;19915;-73
2023/02/27 09:29:57;;;;;;;;;;;;;;;3.44;53.36;98886.59;7385200;19;19929;-73
2023/02/27 09:32:24;;;;;;;;;;;;;;;3.84;53.34;98885.81;7385454;19;20377;-72
2023/02/27 09:34:51;;;;;;;;;;;;;;;4.02;52.42;98875.91;7384131;19;19930;-74
2023/02/27 09:37:20;;;;;;;;;;;;;;;3.51;51.21;98885.28;7387129;19;19919;-73
2023/02/27 09:39:47;;;;;;;;;;;;;;;3.34;53.04;98879.44;7380764;19;19910;-73
2023/02/27 09:42:17;;;;;;;;;;;;;;;3.17;53.95;98880.53;7385293;19;20387;-73
2023/02/27 09:44:58;;;;;;;;;;;;;;;2.77;52.23;98888.25;7382458;19;20280;-73
2023/02/27 09:47:28;;;;;;;;;;;;;;;2.96;52.73;98869.66;7386665;19;19923;-73
2023/02/27 09:50:05;;;;;;;;;;;;;;;2.97;51.76;98882.59;7387968;19;19941;-73
2023/02/27 09:52:33;;;;;;;;;;;;;;;3.20;51.54;98885.56;7379948;19;19929;-72
2023/02/27 09:55:00;;;;;;;;;;;;;;;3.71;53.68;98893.63;7384772;19;19918;-73
2023/02/27 09:57:29;;;;;;;;;;;;;;;4.02;51.62;98889.00;7381781;19;20636;-73
2023/02/27 09:59:58;;;;;;;;;;;;;;;4.18;52.57;98887.84;7388867;19;19933;-73
2023/02/27 10:02:31;;;;;;;;;;;;;;;4.40;52.17;98886.44;7392867;19;19925;-73
2023/02/27 10:05:02;;;;;;;;;;;;;;;4.36;49.15;98885.78;7393921;19;20342;-73
2023/02/27 10:07:41;;;;;;;;;;;;;;;4.86;49.86;98892.91;7392484;19;20359;-73
2023/02/27 10:10:07;;;;;;;;;;;;;;;5.36;48.58;98898.97;7395219;19;19918;-72
2023/02/27 10:12:46;;;;;;;;;;;;;;;5.49;47.39;98894.53;7383297;19;19918;-73
2023/02/27 10:15:15;;;;;;;;;;;;;;;5.12;45.51;98891.91;7392496;19;20361;-73
2023/02/27 10:17:43;;;;;;;;;;;;;;;4.89;46.85;98892.69;7389597;19;20303;-73
2023/02/27 10:20:13;;;;;;;;;;;;;;;4.97;46.51;98895.59;7392939;19;19945;-73
2023/02/27 10:22:41;;;;;;;;;;;;;;;5.23;47.57;98896.38;7386974;19;19924;-73
2023/02/27 10:25:12;;;;;;;;;;;;;;;5.34;46.26;98899.06;7393582;19;19910;-74
2023/02/27 10:27:57;;;;;;;;;;;;;;;4.99;44.75;98896.34;7388951;19;19922;-73
2023/02/27 10:30:26;;;;;;;;;;;;;;;5.19;46.29;98900.19;7388901;19;19924;-74
2023/02/27 10:33:11;;;;;;;;;;;;;;;5.26;46.88;98904.88;7383939;19;19935;-73
2023/02/27 10:35:38;;;;;;;;;;;;;;;5.28;46.82;98902.97;7390211;19;19925;-72
2023/02/27 10:38:09;;;;;;;;;;;;;;;4.74;45.74;98908.53;7393005;19;20370;-73
2023/02/27 10:40:36;;;;;;;;;;;;;;;5.24;47.51;98911.19;7392751;19;19922;-73
2023/02/27 10:43:02;;;;;;;;;;;;;;;5.39;45.93;98904.84;7389727;19;20385;-73
2023/02/27 10:45:32;;;;;;;;;;;;;;;5.40;45.39;98903.06;7384771;19;20321;-73
2023/02/27 10:48:03;;;;;;;;;;;;;;;5.89;43.79;98907.38;7388347;19;19925;-73
2023/02/27 10:50:31;;;;;;;;;;;;;;;6.02;45.29;98902.91;7390939;19;20359;-71
2023/02/27 10:52:58;;;;;;;;;;;;;;;6.31;43.90;98911.25;7387353;19;20304;-72
2023/02/27 10:55:34;;;;;;;;;;;;;;;5.84;44.70;98906.88;7393269;19;19922;-72
2023/02/27 10:58:01;;;;;;;;;;;;;;;6.08;46.19;98902.47;7391855;19;19926;-72
2023/02/27 11:00:30;;;;;;;;;;;;;;;5.97;45.44;98909.47;7393980;19;19934;-72
2023/02/27 11:02:56;;;;;;;;;;;;;;;5.92;44.96;98904.50;7381749;19;20314;-72
2023/02/27 11:05:33;;;;;;;;;;;;;;;5.99;44.26;98903.13;7389860;19;19981;-72
2023/02/27 11:08:19;;;;;;;;;;;;;;;6.04;45.24;98903.63;7387186;19;19927;-72
2023/02/27 11:10:53;;;;;;;;;;;;;;;5.83;44.15;98894.69;7387122;19;19997;-71
2023/02/27 11:13:21;;;;;;;;;;;;;;;5.96;43.40;98902.53;7388816;19;19919;-72
2023/02/27 11:16:04;;;;;;;;;;;;;;;6.10;44.19;98897.09;7385700;19;20403;-72
2023/02/27 11:18:31;;;;;;;;;;;;;;;6.59;43.50;98891.59;7390157;19;19922;-72
2023/02/27 11:21:24;;;;;;;;;;;;;;;7.00;42.13;98887.56;7384868;19;19918;-71
2023/02/27 11:23:56;;;;;;;;;;;;;;;7.23;40.28;98887.50;7387290;19;19918;-72
2023/02/27 11:26:24;;;;;;;;;;;;;;;7.57;41.12;98877.75;7389978;19;20298;-71
2023/02/27 11:29:13;;;;;;;;;;;;;;;7.66;42.27;98881.41;7386619;19;19926;-72
2023/02/27 11:31:47;;;;;;;;;;;;;;;8.04;39.62;98880.09;7384583;19;19919;-73
2023/02/27 11:34:20;;;;;;;;;;;;;;;7.74;38.65;98872.91;7388194;19;20266;-72
2023/02/27 11:36:48;;;;;;;;;;;;;;;7.93;39.91;98878.34;7383618;19;20294;-72
2023/02/27 11:39:21;;;;;;;;;;;;;;;8.14;39.08;98876.56;7389859;19;19923;-72
2023/02/27 11:41:48;;;;;;;;;;;;;;;8.33;37.25;98865.31;7385980;19;19926;-72
2023/02/27 11:44:16;;;;;;;;;;;;;;;8.44;37.06;98868.88;7390174;19;19923;-72
2023/02/27 11:46:49;;;;;;;;;;;;;;;8.86;35.83;98876.72;7382739;19;19978;-71
2023/02/27 11:49:36;;;;;;;;;;;;;;;8.52;35.30;98867.25;7391824;19;19915;-71
2023/02/27 11:52:11;;;;;;;;;;;;;;;8.20;37.48;98869.94;7386394;19;19919;-72
2023/02/27 11:54:52;;;;;;;;;;;;;;;7.91;38.18;98870.56;7383981;19;19918;-71
2023/02/27 11:57:39;;;;;;;;;;;;;;;6.94;38.63;98880.13;7389927;19;19929;-70
2023/02/27 12:00:06;;;;;;;;;;;;;;;6.87;40.07;98881.53;7392790;19;20335;-72
2023/02/27 12:02:44;;;;;;;;;;;;;;;7.41;40.62;98870.25;7387309;19;19950;-72
2023/02/27 12:05:15;;;;;;;;;;;;;;;7.59;39.23;98859.19;7393261;19;19942;-71
2023/02/27 12:07:47;;;;;;;;;;;;;;;7.60;40.23;98866.13;7385911;19;20358;-71
2023/02/27 12:10:21;;;;;;;;;;;;;;;7.48;38.71;98863.53;7387664;19;19915;-71
2023/02/27 12:12:51;;;;;;;;;;;;;;;6.67;39.45;98869.97;7384904;19;19922;-71
2023/02/27 12:15:21;;;;;;;;;;;;;;;6.52;41.85;98873.78;7389472;19;19926;-72
2023/02/27 12:18:02;;;;;;;;;;;;;;;5.67;42.15;98868.72;7387606;19;19918;-71
2023/02/27 12:20:38;;;;;;;;;;;;;;;5.67;43.75;98866.09;7393882;19;19993;-71
2023/02/27 12:23:10;;;;;;;;;;;;;;;5.47;43.14;98865.75;7388804;19;19915;-72
2023/02/27 12:25:39;;;;;;;;;;;;;;;5.35;43.34;98865.84;7383021;19;20259;-72
2023/02/27 12:28:07;;;;;;;;;;;;;;;5.42;45.08;98862.63;7385846;19;19922;-72
2023/02/27 12:30:45;;;;;;;;;;;;;;;5.30;44.59;98858.28;7390425;19;19915;-71
2023/02/27 12:33:15;;;;;;;;;;;;;;;5.10;44.51;98867.56;7389426;19;19922;-71
2023/02/27 12:35:42;;;;;;;;;;;;;;;5.12;44.39;98847.31;7389311;19;19923;-72
2023/02/27 12:38:10;;;;;;;;;;;;;;;5.08;45.69;98848.47;7388891;19;20313;-72
2023/02/27 12:40:44;;;;;;;;;;;;;;;4.80;44.61;98862.72;7388505;19;20298;-73
2023/02/27 12:43:30;;;;;;;;;;;;;;;4.71;45.57;98868.59;7383086;19;20263;-72
2023/02/27 12:46:03;;;;;;;;;;;;;;;4.77;46.00;98863.78;7383189;19;19930;-72
2023/02/27 12:48:40;;;;;;;;;;;;;;;4.99;47.17;98862.25;7391694;19;19922;-72
2023/02/27 12:51:15;;;;;;;;;;;;;;;5.17;45.26;98865.38;7392174;19;19926;-70
2023/02/27 12:53:53;;;;;;;;;;;;;;;5.11;45.91;98857.91;7384575;19;19918;-72
2023/02/27 12:56:20;;;;;;;;;;;;;;;5.20;46.56;98847.59;7386417;19;20413;-72
2023/02/27 12:58:56;;;;;;;;;;;;;;;5.17;45.22;98847.00;7379243;19;19926;-71
2023/02/27 13:01:26;;;;;;;;;;;;;;;4.97;45.51;98857.09;7380028;19;19922;-71
2023/02/27 13:03:56;;;;;;;;;;;;;;;4.95;46.08;98859.03;7381598;19;19922;-71
2023/02/27 13:06:28;;;;;;;;;;;;;;;4.88;46.42;98854.31;7386895;19;20017;-72
2023/02/27 13:09:01;;;;;;;;;;;;;;;4.87;45.45;98863.09;7384567;19;20480;-72